Time;durP1;ratioP1;P1;durP2;ratioP2;P2;SDS_P1;SDS_P2;PMS_P1;PMS_P2;Temp;Humidity;BMP_temperature;BMP_pressure;BME280_temperature;BME280_humidity;BME280_pressure;Samples;Min_cycle;Max_cycle;Signal;HPM_P1;HPM_P2
2022/05/05 05:32:34;;;;;;;7.80;3.97;;;;;;;12.76;87.89;98693.88;5082066;27;21036;-59
2022/05/05 05:34:59;;;;;;;6.80;4.30;;;;;;;12.82;86.40;98694.06;5065324;28;20028;-59
2022/05/05 05:37:24;;;;;;;6.70;4.25;;;;;;;12.55;86.87;98639.50;5064881;28;20039;-59
2022/05/05 05:39:50;;;;;;;7.82;4.28;;;;;;;12.97;87.71;98683.84;5094744;28;20493;-60
2022/05/05 05:42:15;;;;;;;6.78;4.10;;;;;;;12.95;86.77;98688.41;5069236;28;20832;-61
2022/05/05 05:44:40;;;;;;;7.57;4.35;;;;;;;13.03;86.70;98692.84;5087817;28;20035;-59
2022/05/05 05:47:10;;;;;;;8.43;4.57;;;;;;;13.06;87.00;98689.91;5065453;28;20035;-60
2022/05/05 05:49:35;;;;;;;6.45;4.00;;;;;;;13.01;88.10;98707.84;5074498;28;20024;-59
2022/05/05 05:52:01;;;;;;;6.18;3.60;;;;;;;13.08;89.30;98704.44;5074851;28;20028;-57
2022/05/05 05:54:26;;;;;;;6.82;4.07;;;;;;;13.08;89.59;98707.03;5057447;28;20027;-60
2022/05/05 05:56:52;;;;;;;8.00;4.47;;;;;;;13.01;89.38;98711.25;5061915;28;20039;-59
2022/05/05 05:59:17;;;;;;;6.70;4.57;;;;;;;13.09;89.31;98705.28;5078098;28;20031;-60
2022/05/05 06:04:27;;;;;;;6.85;4.50;;;;;;;13.13;89.61;98726.66;5082948;28;20077;-60
2022/05/05 06:06:52;;;;;;;7.05;4.38;;;;;;;13.15;89.56;98719.47;5065410;28;20468;-60
2022/05/05 06:09:18;;;;;;;6.55;4.35;;;;;;;13.24;89.55;98718.53;5067685;28;20013;-59
2022/05/05 06:11:43;;;;;;;8.32;4.65;;;;;;;13.33;88.46;98729.84;5072857;28;20027;-60
2022/05/05 06:14:09;;;;;;;6.20;4.05;;;;;;;13.43;87.71;98727.91;5070438;28;20102;-61
2022/05/05 06:16:34;;;;;;;7.50;4.35;;;;;;;13.48;87.88;98730.84;5082921;28;20035;-60
2022/05/05 06:19:00;;;;;;;7.00;4.40;;;;;;;13.37;87.04;98733.78;5077091;28;20590;-60
2022/05/05 06:21:25;;;;;;;6.55;4.50;;;;;;;13.06;87.63;98709.00;5081119;28;20085;-59
2022/05/05 06:23:51;;;;;;;7.43;4.32;;;;;;;13.10;88.43;98722.56;5078950;28;20927;-59
2022/05/05 06:26:16;;;;;;;6.47;3.92;;;;;;;13.17;88.48;98741.84;5071270;28;20503;-59
2022/05/05 06:28:42;;;;;;;6.68;4.60;;;;;;;13.13;88.15;98739.72;5074769;28;20023;-59
2022/05/05 06:31:07;;;;;;;7.05;4.20;;;;;;;13.22;87.83;98730.94;5072139;28;20120;-59
2022/05/05 06:33:32;;;;;;;7.97;4.00;;;;;;;13.18;88.07;98734.81;5066243;28;20038;-60
2022/05/05 06:35:58;;;;;;;7.03;4.57;;;;;;;13.22;87.95;98731.72;5060451;28;20565;-59
2022/05/05 06:38:24;;;;;;;6.93;4.43;;;;;;;13.23;88.59;98740.38;5081110;28;20591;-58
2022/05/05 06:40:50;;;;;;;6.22;4.18;;;;;;;13.26;87.76;98732.25;5079657;28;20076;-59
2022/05/05 06:43:15;;;;;;;7.10;4.50;;;;;;;13.16;88.86;98721.94;5035724;28;20492;-59
2022/05/05 06:45:41;;;;;;;5.60;3.65;;;;;;;13.22;88.23;98728.31;5053353;28;20402;-59
2022/05/05 06:48:06;;;;;;;5.80;3.80;;;;;;;12.94;89.64;98691.16;5036038;28;20391;-60
2022/05/05 06:50:32;;;;;;;8.50;4.63;;;;;;;13.32;89.41;98738.66;5068045;28;20032;-59
2022/05/05 06:53:00;;;;;;;9.07;4.57;;;;;;;13.08;89.17;98696.59;5059734;28;20449;-58
2022/05/05 06:55:26;;;;;;;6.25;4.25;;;;;;;13.23;88.56;98741.22;5071254;28;20085;-59
2022/05/05 06:57:51;;;;;;;9.55;4.55;;;;;;;12.97;88.83;98704.72;5034698;28;20024;-59
2022/05/05 07:00:17;;;;;;;6.80;4.47;;;;;;;13.17;89.69;98748.84;5065573;28;20035;-59
2022/05/05 07:02:42;;;;;;;7.57;4.38;;;;;;;12.94;90.30;98693.78;5074335;28;20073;-57
2022/05/05 07:05:23;;;;;;;6.75;4.07;;;;;;;13.16;91.25;98745.44;5053017;28;20665;-59
2022/05/05 07:07:48;;;;;;;6.20;4.10;;;;;;;13.15;88.53;98741.19;5058715;28;20085;-58
2022/05/05 07:12:58;;;;;;;6.80;4.35;;;;;;;13.10;89.49;98729.56;5004318;28;20127;-59
2022/05/05 07:15:23;;;;;;;8.60;4.43;;;;;;;13.15;90.08;98743.78;5065618;28;20032;-59
2022/05/05 07:17:49;;;;;;;7.93;4.20;;;;;;;13.21;89.23;98739.72;5083387;28;20142;-59
2022/05/05 07:20:14;;;;;;;6.53;4.22;;;;;;;13.17;88.83;98731.38;5066211;28;20031;-60
2022/05/05 07:22:40;;;;;;;7.43;3.92;;;;;;;13.23;88.19;98746.44;5052051;28;20032;-59
2022/05/05 07:25:07;;;;;;;7.88;4.60;;;;;;;13.23;89.71;98758.66;5085565;28;20088;-59
2022/05/05 07:27:32;;;;;;;6.68;4.38;;;;;;;13.22;89.36;98747.41;5070751;28;20043;-59
2022/05/05 07:29:58;;;;;;;7.93;4.40;;;;;;;13.04;88.49;98697.09;5059026;28;20020;-59
2022/05/05 07:32:23;;;;;;;9.10;4.45;;;;;;;13.34;89.25;98736.69;5054632;28;20044;-59
2022/05/05 07:34:49;;;;;;;7.40;4.57;;;;;;;13.38;88.16;98745.84;5062491;28;20020;-59
2022/05/05 07:37:14;;;;;;;6.72;4.30;;;;;;;13.41;88.08;98754.16;5065085;28;20024;-59
2022/05/05 07:39:39;;;;;;;9.05;4.90;;;;;;;13.38;89.07;98751.91;5073468;28;20028;-59
2022/05/05 07:42:05;;;;;;;7.40;4.45;;;;;;;13.30;88.73;98736.16;5077462;28;20028;-58
2022/05/05 07:44:31;;;;;;;7.65;5.05;;;;;;;13.48;88.26;98762.19;5033988;28;20620;-59
2022/05/05 07:46:57;;;;;;;7.38;4.72;;;;;;;13.44;88.05;98768.72;5011451;28;20032;-59
2022/05/05 07:49:22;;;;;;;7.22;4.80;;;;;;;13.39;88.85;98757.94;5050320;28;20527;-59
2022/05/05 07:51:51;;;;;;;7.90;4.88;;;;;;;13.38;88.09;98761.50;5062238;28;20028;-59
2022/05/05 07:57:03;;;;;;;8.63;4.63;;;;;;;13.45;89.46;98779.00;5054279;28;20781;-59
2022/05/05 07:59:29;;;;;;;8.88;5.28;;;;;;;13.43;89.23;98785.34;5084037;28;20028;-59
2022/05/05 08:01:54;;;;;;;8.38;5.38;;;;;;;13.38;90.58;98783.25;5065355;28;20024;-59
2022/05/05 08:04:20;;;;;;;9.10;6.00;;;;;;;13.32;90.18;98786.47;5056216;28;20035;-59
2022/05/05 08:06:45;;;;;;;7.97;5.15;;;;;;;13.33;90.33;98789.91;5053842;28;20024;-59
2022/05/05 08:09:11;;;;;;;7.05;4.60;;;;;;;13.21;89.23;98789.34;5068519;28;20491;-59
2022/05/05 08:11:37;;;;;;;6.55;4.13;;;;;;;12.99;87.30;98760.19;5050919;28;20070;-58
2022/05/05 08:14:04;;;;;;;6.85;4.20;;;;;;;13.23;87.62;98797.81;5051510;28;20021;-59
2022/05/05 08:16:29;;;;;;;8.55;4.45;;;;;;;13.33;87.70;98801.16;5064949;28;20043;-58
2022/05/05 08:18:55;;;;;;;6.47;3.95;;;;;;;13.42;85.71;98808.06;5037643;28;20278;-59
2022/05/05 08:21:20;;;;;;;6.50;3.95;;;;;;;13.45;84.48;98814.75;5048013;28;20039;-59
2022/05/05 08:23:46;;;;;;;8.25;3.92;;;;;;;13.53;84.48;98812.16;5058338;28;20027;-59
2022/05/05 08:28:55;;;;;;;6.47;3.90;;;;;;;13.42;83.45;98808.06;5073776;28;20031;-59
2022/05/05 08:31:20;;;;;;;7.05;4.05;;;;;;;13.48;83.43;98806.59;5076294;28;20029;-59
2022/05/05 08:33:47;;;;;;;5.93;3.55;;;;;;;13.54;83.31;98805.16;5084604;28;20505;-59
2022/05/05 08:36:13;;;;;;;5.30;3.33;;;;;;;13.45;82.92;98817.34;5060958;28;20054;-59
2022/05/05 08:38:38;;;;;;;6.20;3.70;;;;;;;13.40;83.15;98788.31;5063586;28;20553;-58
2022/05/05 08:41:04;;;;;;;5.80;3.65;;;;;;;13.60;82.79;98802.72;5078413;28;20074;-59
2022/05/05 08:43:30;;;;;;;6.20;3.90;;;;;;;13.58;82.27;98809.06;5050596;28;20032;-59
2022/05/05 08:45:58;;;;;;;7.47;3.67;;;;;;;13.67;83.44;98810.72;5055025;28;20020;-58
2022/05/05 08:48:24;;;;;;;6.00;3.85;;;;;;;13.42;82.78;98779.31;5046879;28;20025;-58
2022/05/05 08:50:58;;;;;;;5.90;3.60;;;;;;;13.77;84.20;98808.81;5024265;28;20049;-58
2022/05/05 08:53:30;;;;;;;6.85;3.65;;;;;;;13.88;81.25;98820.75;5024330;28;20474;-57
2022/05/05 08:55:55;;;;;;;6.53;4.20;;;;;;;13.81;82.82;98817.13;5043429;28;20383;-58
2022/05/05 08:58:22;;;;;;;6.15;3.20;;;;;;;13.78;82.75;98809.59;5042804;28;20021;-57
2022/05/05 09:00:51;;;;;;;8.50;3.35;;;;;;;13.61;82.87;98804.34;5062437;28;20031;-58
2022/05/05 09:03:17;;;;;;;6.03;3.78;;;;;;;13.62;82.85;98810.41;5064182;28;20050;-58
2022/05/05 09:05:42;;;;;;;6.30;3.80;;;;;;;13.64;81.42;98816.28;5055423;28;20059;-59
2022/05/05 09:08:10;;;;;;;5.35;3.40;;;;;;;13.55;83.55;98815.44;5057116;28;20415;-60
2022/05/05 09:10:44;;;;;;;6.07;3.55;;;;;;;13.58;83.11;98814.28;5034088;28;20089;-60
2022/05/05 09:13:10;;;;;;;5.68;3.47;;;;;;;13.54;83.14;98813.78;5042957;28;20052;-59
2022/05/05 09:15:37;;;;;;;6.25;3.40;;;;;;;13.59;84.78;98823.78;5065452;28;20522;-60
2022/05/05 09:18:16;;;;;;;6.20;4.00;;;;;;;13.33;84.40;98785.50;5061746;28;20533;-60
2022/05/05 09:20:43;;;;;;;6.50;3.40;;;;;;;13.37;84.41;98784.19;5050465;28;20028;-60
2022/05/05 09:23:09;;;;;;;6.50;3.88;;;;;;;13.72;84.72;98826.75;5039220;28;20117;-59
2022/05/05 09:25:48;;;;;;;6.47;3.58;;;;;;;13.57;82.49;98831.78;5052627;28;20125;-59
2022/05/05 09:28:25;;;;;;;8.20;3.83;;;;;;;13.58;83.10;98836.03;5067099;28;20052;-59
2022/05/05 09:30:51;;;;;;;6.40;3.78;;;;;;;13.59;82.96;98829.81;5056177;28;20044;-59
2022/05/05 09:33:38;;;;;;;6.03;3.28;;;;;;;13.58;82.60;98835.19;5058920;28;20415;-59
2022/05/05 09:36:12;;;;;;;6.00;3.42;;;;;;;13.63;83.33;98835.53;5024401;28;20043;-60
2022/05/05 09:38:58;;;;;;;6.60;3.85;;;;;;;13.68;82.33;98835.09;5037865;28;20425;-59
2022/05/05 09:41:24;;;;;;;7.30;4.15;;;;;;;13.78;83.48;98833.97;5049466;28;20057;-59
2022/05/05 09:43:53;;;;;;;5.50;3.53;;;;;;;13.79;84.32;98838.19;5068790;28;20039;-59
2022/05/05 09:46:21;;;;;;;5.90;3.80;;;;;;;13.88;84.37;98840.84;5058483;28;20035;-60
2022/05/05 09:48:47;;;;;;;6.63;3.63;;;;;;;13.88;83.79;98820.75;5039216;28;20068;-59
2022/05/05 09:51:14;;;;;;;6.20;3.83;;;;;;;13.91;84.77;98830.88;5060039;28;20028;-60
2022/05/05 09:59:14;;;;;;;8.07;4.00;;;;;;;14.08;85.45;98830.91;5046166;28;20452;-60
2022/05/05 10:01:41;;;;;;;6.70;3.70;;;;;;;13.97;85.01;98825.00;5051786;28;20034;-59
2022/05/05 10:04:09;;;;;;;6.55;4.50;;;;;;;14.04;84.58;98826.00;5035534;28;20063;-60
2022/05/05 10:06:42;;;;;;;6.00;3.75;;;;;;;13.93;84.66;98818.47;5048162;28;20754;-60
2022/05/05 10:09:12;;;;;;;6.78;4.28;;;;;;;14.08;83.51;98823.88;5033804;28;20794;-59
2022/05/05 10:11:38;;;;;;;7.00;4.28;;;;;;;14.09;84.32;98824.69;5041957;28;20903;-59
2022/05/05 10:14:05;;;;;;;6.95;4.50;;;;;;;14.12;84.49;98819.16;5057024;28;20089;-59
2022/05/05 10:16:31;;;;;;;7.28;4.10;;;;;;;14.13;83.48;98820.78;5040868;28;20115;-60
2022/05/05 10:18:57;;;;;;;7.40;4.22;;;;;;;13.82;83.16;98780.38;5061397;28;20131;-59
2022/05/05 10:21:27;;;;;;;7.50;4.25;;;;;;;14.20;83.58;98824.38;5042667;28;20055;-58
2022/05/05 10:24:37;;;;;;;6.30;3.92;;;;;;;14.33;83.81;98819.50;5056502;28;20852;-59
2022/05/05 10:27:04;;;;;;;6.60;4.32;;;;;;;14.38;81.79;98819.81;5041078;28;20039;-59
2022/05/05 10:29:34;;;;;;;6.20;4.05;;;;;;;14.47;81.58;98822.41;5042200;28;20024;-60
2022/05/05 10:32:18;;;;;;;6.30;4.25;;;;;;;14.45;81.42;98819.16;5037833;28;20033;-59
2022/05/05 10:34:45;;;;;;;6.57;4.28;;;;;;;14.52;81.63;98815.72;5051549;28;20021;-59
2022/05/05 10:37:37;;;;;;;6.75;4.03;;;;;;;14.54;81.59;98823.41;5060367;28;20031;-59
2022/05/05 10:40:07;;;;;;;7.10;4.15;;;;;;;14.45;80.41;98822.56;5060844;28;20016;-59
2022/05/05 10:42:42;;;;;;;7.05;4.70;;;;;;;14.44;78.79;98813.13;5060452;28;20024;-57
2022/05/05 10:45:20;;;;;;;8.75;4.15;;;;;;;14.67;79.11;98812.47;5053737;28;20029;-58
2022/05/05 10:47:55;;;;;;;6.28;3.95;;;;;;;14.65;79.59;98822.28;5009470;28;20313;-58
2022/05/05 10:50:30;;;;;;;6.90;3.85;;;;;;;14.58;79.62;98811.63;5054227;28;20024;-58
2022/05/05 10:52:57;;;;;;;6.88;4.32;;;;;;;14.60;78.64;98820.13;5022283;28;20044;-58
2022/05/05 10:55:28;;;;;;;6.63;4.05;;;;;;;14.39;78.91;98779.59;5027958;28;20060;-59
2022/05/05 10:57:53;;;;;;;6.25;3.80;;;;;;;14.56;78.96;98810.97;5030248;28;20052;-58
2022/05/05 11:00:19;;;;;;;6.10;3.90;;;;;;;14.52;80.38;98812.28;5053095;28;20413;-58
2022/05/05 11:03:00;;;;;;;5.90;3.47;;;;;;;14.24;81.65;98776.00;5035092;28;20048;-59
2022/05/05 11:05:27;;;;;;;6.40;3.65;;;;;;;14.27;82.02;98772.25;5043589;28;20029;-60
2022/05/05 11:07:54;;;;;;;8.50;4.45;;;;;;;14.12;81.59;98757.19;5031272;28;20047;-58
2022/05/05 11:10:38;;;;;;;6.65;4.25;;;;;;;14.40;82.75;98799.53;5037537;28;20028;-59
2022/05/05 11:13:04;;;;;;;8.35;4.35;;;;;;;14.31;83.69;98804.91;5078060;28;20020;-58
2022/05/05 11:21:33;;;;;;;7.93;4.40;;;;;;;14.45;82.36;98795.59;5061327;28;20039;-59
2022/05/05 11:24:00;;;;;;;6.88;4.60;;;;;;;14.48;83.57;98793.47;5049633;28;20023;-59
2022/05/05 11:26:26;;;;;;;7.78;4.95;;;;;;;14.40;83.53;98802.16;4998986;28;20488;-58
2022/05/05 11:28:52;;;;;;;7.53;4.63;;;;;;;14.34;82.85;98794.13;5054070;28;20016;-58
2022/05/05 11:31:27;;;;;;;7.45;4.60;;;;;;;14.49;83.00;98796.91;5053395;28;20056;-59
2022/05/05 11:34:00;;;;;;;7.05;4.40;;;;;;;14.58;83.01;98796.78;5062644;28;20097;-58
2022/05/05 11:36:37;;;;;;;8.48;4.97;;;;;;;14.48;83.85;98788.25;5063472;28;20028;-58
2022/05/05 11:39:03;;;;;;;8.32;5.22;;;;;;;14.29;83.04;98750.19;5058576;28;20382;-58
2022/05/05 11:41:29;;;;;;;7.75;4.57;;;;;;;14.54;83.17;98784.16;5053662;28;20689;-58
2022/05/05 11:46:39;;;;;;;7.65;4.70;;;;;;;14.54;81.80;98789.38;5076379;28;20061;-59
2022/05/05 11:49:05;;;;;;;7.70;5.15;;;;;;;14.37;81.27;98762.44;5060939;28;20016;-59
2022/05/05 11:51:33;;;;;;;7.47;5.18;;;;;;;14.48;82.25;98793.47;5066103;28;20024;-58
2022/05/05 11:54:07;;;;;;;7.45;4.53;;;;;;;14.47;81.25;98788.41;5023932;28;20021;-58
2022/05/05 11:56:34;;;;;;;8.70;4.72;;;;;;;14.48;83.63;98776.97;5080435;28;20029;-59
2022/05/05 12:02:10;;;;;;;6.72;4.43;;;;;;;14.43;81.57;98780.06;5001788;28;20753;-58
2022/05/05 12:04:38;;;;;;;7.57;4.80;;;;;;;14.44;83.94;98779.09;5065490;28;20032;-58
2022/05/05 12:07:05;;;;;;;7.85;4.80;;;;;;;14.49;83.03;98771.56;5038284;28;20032;-58
2022/05/05 12:09:31;;;;;;;9.15;4.93;;;;;;;14.66;82.89;98782.03;5052667;28;20016;-59
2022/05/05 12:11:56;;;;;;;10.52;4.75;;;;;;;14.59;81.59;98760.97;5062413;28;20032;-58
2022/05/05 12:14:25;;;;;;;8.50;4.40;;;;;;;14.68;81.54;98770.41;5041413;28;20020;-59
2022/05/05 12:16:51;;;;;;;8.40;4.80;;;;;;;14.78;81.73;98776.28;5048070;28;20032;-59
2022/05/05 12:19:18;;;;;;;7.25;4.70;;;;;;;14.72;82.41;98784.00;5058823;28;20475;-59
2022/05/05 12:21:54;;;;;;;7.47;4.70;;;;;;;14.51;82.07;98753.91;5042490;28;20097;-59
2022/05/05 12:24:24;;;;;;;6.72;4.32;;;;;;;14.68;81.46;98773.03;5046625;28;20073;-58
2022/05/05 12:27:13;;;;;;;;;;;;;;;14.75;79.94;98776.63;5061017;28;20032;-59
2022/05/05 12:29:45;;;;;;;7.80;4.57;;;;;;;14.58;79.96;98741.84;5073913;28;19977;-58
2022/05/05 12:32:16;;;;;;;8.43;4.75;;;;;;;14.60;81.08;98760.78;5059744;28;20032;-58
2022/05/05 12:34:42;;;;;;;7.18;4.78;;;;;;;14.57;81.12;98755.88;5066687;28;20027;-58
2022/05/05 12:37:18;;;;;;;7.28;4.78;;;;;;;14.28;80.75;98732.84;5052786;28;20027;-58
2022/05/05 12:40:03;;;;;;;8.50;5.15;;;;;;;14.46;81.17;98784.19;5055817;28;20395;-58
2022/05/05 12:42:43;;;;;;;6.45;4.45;;;;;;;14.41;81.45;98793.31;5049034;28;20803;-58
2022/05/05 12:45:26;;;;;;;8.00;4.93;;;;;;;14.32;86.19;98786.44;5051277;28;20016;-61
2022/05/05 12:47:53;;;;;;;9.73;5.95;;;;;;;14.04;87.56;98778.94;5059100;28;20048;-60
2022/05/05 12:50:31;;;;;;;8.45;5.68;;;;;;;14.02;90.70;98796.59;5074597;28;20406;-59
2022/05/05 13:01:20;;;;;;;5.93;2.67;;;;;;;13.31;81.16;98734.41;5061062;28;20066;-59
2022/05/05 13:03:45;;;;;;;9.30;4.38;;;;;;;13.35;83.19;98761.84;5053131;28;20032;-59
2022/05/05 13:06:12;;;;;;;6.78;3.40;;;;;;;12.96;85.45;98724.00;5080005;28;20077;-59
2022/05/05 13:08:38;;;;;;;7.35;3.40;;;;;;;13.44;88.79;98753.06;5064864;28;20574;-59
2022/05/05 13:11:03;;;;;;;6.25;3.67;;;;;;;13.57;89.33;98755.19;5039172;28;20029;-60
2022/05/05 13:13:28;;;;;;;7.40;3.60;;;;;;;13.72;90.95;98756.19;5076813;28;20024;-60
2022/05/05 13:15:54;;;;;;;7.45;3.83;;;;;;;13.63;89.62;98757.16;5068921;28;20039;-60
2022/05/05 13:18:19;;;;;;;7.20;3.35;;;;;;;13.33;85.77;98740.28;5020066;28;20020;-59
2022/05/05 13:20:45;;;;;;;7.63;3.95;;;;;;;13.29;86.47;98768.50;5041229;28;20032;-59
2022/05/05 13:23:10;;;;;;;8.57;3.95;;;;;;;13.31;87.62;98771.78;5008652;28;20025;-61
2022/05/05 13:25:36;;;;;;;7.32;4.05;;;;;;;13.15;86.38;98767.28;5066978;28;20040;-60
2022/05/05 13:28:02;;;;;;;6.70;3.90;;;;;;;13.07;85.17;98741.16;5057509;28;20024;-60
2022/05/05 13:30:27;;;;;;;5.50;3.28;;;;;;;13.11;83.25;98739.88;5055425;28;20549;-59
2022/05/05 13:32:53;;;;;;;5.63;3.33;;;;;;;13.27;83.46;98776.47;5037137;28;20464;-60
2022/05/05 13:35:19;;;;;;;7.32;3.80;;;;;;;13.22;84.18;98775.31;5060871;28;20082;-60
2022/05/05 13:37:44;;;;;;;5.78;3.30;;;;;;;12.91;81.90;98731.47;5030975;28;20024;-59
2022/05/05 13:40:10;;;;;;;5.50;3.40;;;;;;;13.14;83.11;98772.66;5065097;28;20024;-60
2022/05/05 13:42:36;;;;;;;6.65;3.70;;;;;;;12.86;82.21;98738.94;5067543;28;20636;-59
2022/05/05 13:45:01;;;;;;;7.30;3.42;;;;;;;13.10;83.42;98779.19;5060756;28;21288;-59
2022/05/05 13:47:27;;;;;;;7.63;3.60;;;;;;;12.92;85.27;98730.47;5063285;28;20024;-59
2022/05/05 13:49:53;;;;;;;5.72;3.35;;;;;;;13.18;83.53;98769.59;5043317;28;20473;-60
2022/05/05 13:52:18;;;;;;;7.57;4.57;;;;;;;13.29;87.66;98778.94;5059892;28;20021;-60
2022/05/05 13:54:45;;;;;;;6.60;3.65;;;;;;;13.24;85.82;98775.97;5061007;28;20380;-59
2022/05/05 13:57:10;;;;;;;6.50;3.30;;;;;;;13.22;87.60;98770.91;5069384;28;20472;-59
2022/05/05 13:59:37;;;;;;;5.88;3.45;;;;;;;13.17;87.41;98764.53;5080130;28;20055;-60
2022/05/05 14:02:03;;;;;;;18.83;4.25;;;;;;;13.22;89.23;98767.47;5057698;28;20159;-59
2022/05/05 14:04:30;;;;;;;6.57;3.95;;;;;;;13.26;86.85;98776.63;5042713;28;20111;-59
2022/05/05 14:06:57;;;;;;;6.80;3.90;;;;;;;13.23;87.22;98767.31;5063771;28;20035;-59
2022/05/05 14:12:11;;;;;;;5.68;3.53;;;;;;;13.33;83.07;98777.66;5061213;28;20039;-59
2022/05/05 14:14:37;;;;;;;5.65;3.53;;;;;;;13.37;83.83;98783.38;5054335;28;20421;-59
2022/05/05 14:17:03;;;;;;;6.80;4.07;;;;;;;13.13;84.73;98739.72;5073553;28;20058;-59
2022/05/05 14:19:29;;;;;;;6.80;4.10;;;;;;;13.37;85.44;98791.22;5044066;28;20060;-59
2022/05/05 14:21:55;;;;;;;7.13;4.25;;;;;;;12.99;87.34;98741.13;5040168;28;20615;-59
2022/05/05 14:24:20;;;;;;;8.93;4.65;;;;;;;13.15;88.22;98792.56;5065627;28;20658;-61
2022/05/05 14:26:47;;;;;;;6.47;3.83;;;;;;;13.06;89.80;98789.91;5069256;28;20429;-59
2022/05/05 14:29:13;;;;;;;6.85;4.07;;;;;;;12.99;89.87;98794.13;5043576;28;20683;-61
2022/05/05 14:31:38;;;;;;;9.65;4.65;;;;;;;12.88;90.58;98782.16;5052078;28;20624;-61
2022/05/05 14:34:04;;;;;;;7.30;5.03;;;;;;;12.91;92.16;98806.34;5057610;28;20032;-59
2022/05/05 14:36:30;;;;;;;12.65;5.88;;;;;;;12.64;93.62;98761.16;5045000;28;20661;-58
2022/05/05 14:38:55;;;;;;;12.50;6.25;;;;;;;12.84;92.58;98806.13;5061425;28;20024;-59
2022/05/05 14:41:20;;;;;;;9.07;5.80;;;;;;;12.56;92.26;98771.53;5068483;28;20062;-59
2022/05/05 14:43:46;;;;;;;14.35;7.13;;;;;;;12.72;94.86;98809.97;5057485;28;20017;-61
2022/05/05 14:46:12;;;;;;;12.07;7.03;;;;;;;12.56;94.37;98790.63;5047956;28;20078;-60
2022/05/05 14:48:37;;;;;;;13.15;6.45;;;;;;;12.70;96.19;98825.75;5031666;28;20024;-59
2022/05/05 14:51:02;;;;;;;8.27;5.43;;;;;;;12.67;97.41;98834.72;5055560;28;20108;-60
2022/05/05 14:53:30;;;;;;;10.45;5.53;;;;;;;12.58;95.72;98837.44;5045423;28;20066;-60
2022/05/05 14:55:55;;;;;;;9.60;5.85;;;;;;;12.53;97.84;98835.25;5081085;28;20070;-60
2022/05/05 14:58:21;;;;;;;8.63;5.68;;;;;;;12.44;99.11;98830.97;5056739;28;20037;-60
2022/05/05 15:00:46;;;;;;;15.48;7.13;;;;;;;12.40;98.92;98819.19;5084653;28;20112;-60
2022/05/05 15:03:12;;;;;;;8.57;5.65;;;;;;;12.40;98.90;98827.03;5064180;28;20860;-60
2022/05/05 15:05:37;;;;;;;7.95;5.18;;;;;;;12.29;97.47;98815.84;5078054;28;20024;-58
2022/05/05 15:08:03;;;;;;;9.85;5.30;;;;;;;12.19;98.09;98803.88;5081484;28;20078;-58
2022/05/05 15:10:28;;;;;;;8.38;5.55;;;;;;;11.89;99.79;98771.97;5070040;28;20036;-59
2022/05/05 15:12:54;;;;;;;8.93;5.00;;;;;;;12.17;100.00;98817.03;5054225;28;20609;-59
2022/05/05 15:15:19;;;;;;;8.07;5.00;;;;;;;12.23;100.00;98826.03;5064435;28;20024;-59
2022/05/05 15:17:45;;;;;;;9.10;5.47;;;;;;;12.02;100.00;98789.88;5077976;28;20028;-58
2022/05/05 15:20:11;;;;;;;8.13;5.35;;;;;;;12.29;99.58;98815.84;5068010;28;20066;-59
2022/05/05 15:22:36;;;;;;;8.10;5.18;;;;;;;12.33;99.03;98818.16;5068475;28;20035;-59
2022/05/05 15:25:08;;;;;;;9.75;5.50;;;;;;;12.22;98.11;98798.34;5068766;28;20607;-59
2022/05/05 15:27:34;;;;;;;8.68;5.10;;;;;;;12.31;99.49;98816.50;5037985;28;20032;-59
2022/05/05 15:30:00;;;;;;;6.97;4.47;;;;;;;12.26;98.76;98804.91;5040957;28;20070;-60
2022/05/05 15:32:29;;;;;;;9.18;5.15;;;;;;;12.30;98.75;98819.25;5041097;28;20033;-60
2022/05/05 15:34:56;;;;;;;8.70;4.97;;;;;;;12.23;99.72;98824.28;5037538;28;20028;-60
2022/05/05 15:37:22;;;;;;;8.02;5.53;;;;;;;12.25;99.96;98818.91;5047239;28;20463;-60
2022/05/05 15:39:47;;;;;;;8.32;5.35;;;;;;;12.15;100.00;98811.16;5052686;28;20071;-60
2022/05/05 15:42:12;;;;;;;9.15;5.57;;;;;;;12.07;100.00;98787.66;5050595;28;20029;-60
2022/05/05 15:44:38;;;;;;;11.00;6.47;;;;;;;12.02;100.00;98775.06;5026317;28;20782;-61
2022/05/05 15:47:04;;;;;;;9.18;6.35;;;;;;;12.19;100.00;98807.28;5050555;28;20472;-60
2022/05/05 15:49:29;;;;;;;8.77;5.70;;;;;;;12.17;100.00;98801.41;5035985;28;20081;-60
2022/05/05 15:51:55;;;;;;;8.18;5.70;;;;;;;12.10;100.00;98796.00;5042483;28;20415;-59
2022/05/05 15:54:20;;;;;;;8.40;5.93;;;;;;;12.15;100.00;98798.13;5052966;28;20083;-60
2022/05/05 15:56:45;;;;;;;9.88;5.95;;;;;;;12.20;100.00;98782.88;5036782;28;20021;-60
2022/05/05 15:59:11;;;;;;;9.18;6.03;;;;;;;12.23;100.00;98777.34;5057313;28;20041;-61
2022/05/05 16:01:36;;;;;;;9.27;6.57;;;;;;;12.26;100.00;98778.84;5055269;28;20032;-61
2022/05/05 16:04:02;;;;;;;9.52;6.68;;;;;;;12.18;100.00;98779.59;5053073;28;20032;-60
2022/05/05 16:06:28;;;;;;;10.95;6.65;;;;;;;12.22;100.00;98790.53;5040478;28;20032;-62
2022/05/05 16:08:53;;;;;;;9.38;5.97;;;;;;;12.13;100.00;98778.41;5032488;28;20043;-61
2022/05/05 16:11:19;;;;;;;10.00;6.30;;;;;;;12.07;100.00;98761.59;5036613;28;20037;-61
2022/05/05 16:13:44;;;;;;;8.23;5.40;;;;;;;11.96;100.00;98743.59;5042952;28;20537;-61
2022/05/05 16:16:10;;;;;;;7.82;5.28;;;;;;;12.28;100.00;98792.53;5038123;28;20052;-61
2022/05/05 16:18:35;;;;;;;7.63;4.82;;;;;;;12.11;100.00;98760.31;5047395;28;20032;-61
2022/05/05 16:21:01;;;;;;;7.20;4.25;;;;;;;12.13;100.00;98758.38;5061010;28;20024;-61
2022/05/05 16:23:26;;;;;;;7.53;4.22;;;;;;;12.14;100.00;98762.63;5048149;28;20032;-61
2022/05/05 16:31:33;;;;;;;6.65;4.13;;;;;;;12.35;97.57;98780.53;5068771;28;20528;-61
2022/05/05 16:33:59;;;;;;;7.38;4.47;;;;;;;12.41;100.00;98786.91;5049024;28;20028;-61
2022/05/05 16:36:26;;;;;;;8.07;4.72;;;;;;;12.39;98.36;98779.25;5039920;28;20188;-63
2022/05/05 16:38:52;;;;;;;9.15;4.43;;;;;;;12.46;100.00;98776.84;5043923;28;20391;-61
2022/05/05 16:41:17;;;;;;;7.65;4.95;;;;;;;12.25;100.00;98783.22;5023558;28;20025;-61
2022/05/05 16:43:44;;;;;;;7.13;4.55;;;;;;;12.16;100.00;98778.13;5036609;28;20436;-63
2022/05/05 16:46:09;;;;;;;9.27;4.75;;;;;;;12.04;100.00;98767.91;5051084;28;20025;-62
2022/05/05 16:48:36;;;;;;;8.48;4.82;;;;;;;12.09;100.00;98770.06;5043209;28;20028;-61
2022/05/05 16:51:02;;;;;;;7.95;5.13;;;;;;;12.05;100.00;98766.13;5049781;28;20028;-60
2022/05/05 16:53:28;;;;;;;8.70;4.38;;;;;;;11.78;100.00;98720.09;5055056;28;20474;-62
2022/05/05 16:55:54;;;;;;;6.15;3.85;;;;;;;12.05;99.68;98766.13;5054468;28;20570;-61
2022/05/05 16:58:21;;;;;;;7.00;4.20;;;;;;;11.87;100.00;98722.63;5027365;28;20178;-63
